createdAt,value
2023-01-01T00:00:28.865Z,954.15
2023-01-01T00:01:28.821Z,954.12
2023-01-01T00:02:33.329Z,954.12
2023-01-01T00:03:28.838Z,954.09
2023-01-01T00:04:28.789Z,954.09
2023-01-01T00:05:28.778Z,954.16
2023-01-01T00:06:28.741Z,954.12
2023-01-01T00:07:28.737Z,954.09
2023-01-01T00:08:28.745Z,954.15
2023-01-01T00:09:28.718Z,954.21
2023-01-01T00:10:28.738Z,954.21
2023-01-01T00:11:28.729Z,954.16
2023-01-01T00:12:28.684Z,954.21
2023-01-01T00:13:28.672Z,954.18
2023-01-01T00:14:28.663Z,954.15
2023-01-01T00:15:28.686Z,954.28
2023-01-01T00:16:28.699Z,954.29
2023-01-01T00:17:28.660Z,954.22
2023-01-01T00:18:28.639Z,954.23
2023-01-01T00:19:28.639Z,954.25
2023-01-01T00:20:33.274Z,954.2
2023-01-01T00:21:28.594Z,954.24
2023-01-01T00:22:53.164Z,954.28
2023-01-01T00:23:28.573Z,954.29
2023-01-01T00:24:28.563Z,954.34
2023-01-01T00:25:28.554Z,954.34
2023-01-01T00:26:34.416Z,954.32
2023-01-01T00:27:28.537Z,954.4
2023-01-01T00:28:28.523Z,954.43
2023-01-01T00:29:28.514Z,954.42
2023-01-01T00:30:28.506Z,954.47
2023-01-01T00:31:28.529Z,954.44
2023-01-01T00:32:28.524Z,954.4
2023-01-01T00:33:28.496Z,954.42
2023-01-01T00:34:28.466Z,954.49
2023-01-01T00:35:28.457Z,954.54
2023-01-01T00:36:28.442Z,954.48
2023-01-01T00:37:28.432Z,954.52
2023-01-01T00:38:28.424Z,954.57
2023-01-01T00:39:28.413Z,954.53
2023-01-01T00:40:28.403Z,954.59
2023-01-01T00:41:28.404Z,954.59
2023-01-01T00:42:28.394Z,954.61
2023-01-01T00:43:28.377Z,954.66
2023-01-01T00:44:28.363Z,954.61
2023-01-01T00:45:28.356Z,954.62
2023-01-01T00:46:28.367Z,954.64
2023-01-01T00:47:28.330Z,954.6
2023-01-01T00:48:28.323Z,954.61
2023-01-01T00:49:28.344Z,954.72
2023-01-01T00:50:28.304Z,954.7
2023-01-01T00:51:31.656Z,954.71
2023-01-01T00:52:28.282Z,954.7
2023-01-01T00:53:28.270Z,954.71
2023-01-01T00:54:28.264Z,954.72
2023-01-01T00:55:28.255Z,954.74
2023-01-01T00:56:28.246Z,954.78
2023-01-01T00:57:28.229Z,954.78
2023-01-01T00:58:28.223Z,954.72
2023-01-01T00:59:29.020Z,954.68
2023-01-01T01:00:28.211Z,954.74
2023-01-01T01:01:28.252Z,954.76
2023-01-01T01:02:28.304Z,954.79
2023-01-01T01:03:28.404Z,954.82
2023-01-01T01:04:28.164Z,954.86
2023-01-01T01:05:28.169Z,954.86
2023-01-01T01:06:28.148Z,954.81
2023-01-01T01:07:28.132Z,954.83
2023-01-01T01:08:30.885Z,954.82
2023-01-01T01:09:28.118Z,954.85
2023-01-01T01:10:28.096Z,954.89
2023-01-01T01:11:28.088Z,954.9
2023-01-01T01:12:28.078Z,954.87
2023-01-01T01:13:28.063Z,954.84
2023-01-01T01:14:28.561Z,954.86
2023-01-01T01:15:28.553Z,954.87
2023-01-01T01:16:28.583Z,954.83
2023-01-01T01:17:28.532Z,954.86
2023-01-01T01:18:28.517Z,954.9
2023-01-01T01:19:28.510Z,954.92
2023-01-01T01:20:28.495Z,954.94
2023-01-01T01:21:28.515Z,954.92
2023-01-01T01:22:29.284Z,954.94
2023-01-01T01:23:28.468Z,954.92
2023-01-01T01:24:28.458Z,954.91
2023-01-01T01:25:28.447Z,954.96
2023-01-01T01:26:28.435Z,954.93
2023-01-01T01:27:28.433Z,954.96
2023-01-01T01:28:28.413Z,954.96
2023-01-01T01:29:28.411Z,954.93
2023-01-01T01:30:28.521Z,954.95
2023-01-01T01:31:28.412Z,954.91
2023-01-01T01:32:28.372Z,954.92
2023-01-01T01:33:28.364Z,954.89
2023-01-01T01:34:28.631Z,954.92
2023-01-01T01:35:28.344Z,954.88
2023-01-01T01:36:28.361Z,954.91
2023-01-01T01:37:28.355Z,954.9
2023-01-01T01:38:28.310Z,954.9
2023-01-01T01:39:28.302Z,954.95
2023-01-01T01:40:28.288Z,954.92
2023-01-01T01:41:29.221Z,954.88
2023-01-01T01:42:28.269Z,954.97
2023-01-01T01:43:28.258Z,954.95
2023-01-01T01:44:28.248Z,954.96
2023-01-01T01:45:33.107Z,954.99
2023-01-01T01:46:28.239Z,954.99
2023-01-01T01:47:28.231Z,954.96
2023-01-01T01:48:28.207Z,955
2023-01-01T01:49:28.198Z,954.97
2023-01-01T01:50:28.183Z,954.91
2023-01-01T01:51:28.175Z,955
2023-01-01T01:52:28.163Z,954.98
2023-01-01T01:53:28.180Z,955.04
2023-01-01T01:54:28.153Z,954.97
2023-01-01T01:55:28.143Z,955.05
2023-01-01T01:56:28.133Z,955.02
2023-01-01T01:57:28.120Z,955.02
2023-01-01T01:58:28.106Z,955.02
2023-01-01T01:59:28.098Z,955.02
2023-01-01T02:00:28.088Z,955
2023-01-01T02:01:28.148Z,954.98
2023-01-01T02:02:28.186Z,954.97
2023-01-01T02:03:28.071Z,955.02
2023-01-01T02:04:28.045Z,955
2023-01-01T02:05:28.062Z,955
2023-01-01T02:06:28.023Z,954.98
2023-01-01T02:07:28.008Z,954.96
2023-01-01T02:08:27.999Z,954.9
2023-01-01T02:09:28.012Z,954.96
2023-01-01T02:10:27.987Z,954.96
2023-01-01T02:11:27.966Z,954.94
2023-01-01T02:12:27.966Z,954.91
2023-01-01T02:13:27.949Z,954.89
2023-01-01T02:14:27.935Z,954.91
2023-01-01T02:15:28.052Z,954.87
2023-01-01T02:16:27.916Z,954.9
2023-01-01T02:17:27.905Z,954.9
2023-01-01T02:18:27.893Z,954.93
2023-01-01T02:19:27.882Z,954.91
2023-01-01T02:20:27.871Z,954.92
2023-01-01T02:21:27.860Z,954.93
2023-01-01T02:22:27.851Z,954.9
2023-01-01T02:23:27.836Z,954.82
2023-01-01T02:24:27.830Z,954.8
2023-01-01T02:25:27.842Z,954.86
2023-01-01T02:26:27.807Z,954.84
2023-01-01T02:27:27.805Z,954.82
2023-01-01T02:28:27.788Z,954.87
2023-01-01T02:29:27.773Z,954.82
2023-01-01T02:30:28.226Z,954.89
2023-01-01T02:31:28.258Z,954.88
2023-01-01T02:32:28.207Z,954.9
2023-01-01T02:33:28.193Z,954.93
2023-01-01T02:34:28.182Z,954.94
2023-01-01T02:35:28.170Z,954.85
2023-01-01T02:36:28.160Z,954.9
2023-01-01T02:37:28.147Z,954.92
2023-01-01T02:38:28.142Z,954.86
2023-01-01T02:39:28.127Z,954.88
2023-01-01T02:40:28.120Z,954.98
2023-01-01T02:41:28.149Z,954.9
2023-01-01T02:42:28.095Z,954.92
2023-01-01T02:43:28.085Z,954.86
2023-01-01T02:44:28.074Z,954.89
2023-01-01T02:45:28.061Z,954.82
2023-01-01T02:46:28.057Z,954.87
2023-01-01T02:47:28.047Z,954.88
2023-01-01T02:48:28.038Z,954.87
2023-01-01T02:49:28.019Z,954.89
2023-01-01T02:50:28.015Z,954.87
2023-01-01T02:51:27.998Z,954.86
2023-01-01T02:52:27.995Z,954.83
2023-01-01T02:53:27.977Z,954.81
2023-01-01T02:54:27.969Z,954.81
2023-01-01T02:55:27.957Z,954.79
2023-01-01T02:56:27.944Z,954.76
2023-01-01T02:57:27.962Z,954.71
2023-01-01T02:58:27.924Z,954.78
2023-01-01T02:59:27.913Z,954.77
2023-01-01T03:00:28.064Z,954.78
2023-01-01T03:01:28.017Z,954.76
2023-01-01T03:02:27.969Z,954.78
2023-01-01T03:03:27.936Z,954.79
2023-01-01T03:04:27.855Z,954.8
2023-01-01T03:05:27.849Z,954.76
2023-01-01T03:06:27.841Z,954.83
2023-01-01T03:07:27.829Z,954.78
2023-01-01T03:08:27.812Z,954.81
2023-01-01T03:09:27.806Z,954.76
2023-01-01T03:10:27.795Z,954.75
2023-01-01T03:11:27.783Z,954.82
2023-01-01T03:12:27.771Z,954.8
2023-01-01T03:13:27.789Z,954.81
2023-01-01T03:14:27.999Z,954.85
2023-01-01T03:15:27.987Z,954.83
2023-01-01T03:16:27.981Z,954.81
2023-01-01T03:17:27.967Z,954.84
2023-01-01T03:18:27.955Z,954.81
2023-01-01T03:19:27.943Z,954.78
2023-01-01T03:20:27.932Z,954.81
2023-01-01T03:21:27.928Z,954.84
2023-01-01T03:22:27.911Z,954.77
2023-01-01T03:23:27.913Z,954.77
2023-01-01T03:24:27.897Z,954.8
2023-01-01T03:25:27.880Z,954.75
2023-01-01T03:26:27.869Z,954.79
2023-01-01T03:27:27.857Z,954.8
2023-01-01T03:28:27.888Z,954.73
2023-01-01T03:29:27.864Z,954.77
2023-01-01T03:30:27.829Z,954.8
2023-01-01T03:31:27.876Z,954.76
2023-01-01T03:32:27.804Z,954.83
2023-01-01T03:49:04.511Z,954.85
2023-01-01T03:50:03.309Z,954.82
2023-01-01T03:51:03.292Z,954.87
2023-01-01T03:52:03.279Z,954.85
2023-01-01T03:53:03.260Z,954.9
2023-01-01T03:54:03.249Z,954.94
2023-01-01T03:55:03.235Z,955
2023-01-01T03:56:03.224Z,954.88
2023-01-01T03:57:03.213Z,954.85
2023-01-01T03:58:03.221Z,954.85
2023-01-01T03:59:03.189Z,954.79
2023-01-01T04:00:03.172Z,954.82
2023-01-01T04:01:03.215Z,954.78
2023-01-01T04:02:03.259Z,954.79
2023-01-01T04:03:03.184Z,954.8
2023-01-01T04:04:03.123Z,954.81
2023-01-01T04:05:03.142Z,954.83
2023-01-01T04:06:03.102Z,954.82
2023-01-01T04:07:14.542Z,954.85
2023-01-01T04:08:03.079Z,954.84
2023-01-01T04:09:03.068Z,954.87
2023-01-01T04:10:03.052Z,954.86
2023-01-01T04:11:03.037Z,954.87
2023-01-01T04:12:03.028Z,954.88
2023-01-01T04:13:03.021Z,954.91
2023-01-01T04:14:03.017Z,954.91
2023-01-01T04:15:02.990Z,954.88
2023-01-01T04:16:03.009Z,954.91
2023-01-01T04:17:02.987Z,954.9
2023-01-01T04:18:02.960Z,954.88
2023-01-01T04:19:02.946Z,954.89
2023-01-01T04:20:02.935Z,954.88
2023-01-01T04:21:02.947Z,954.88
2023-01-01T04:22:02.931Z,954.96
2023-01-01T04:23:02.899Z,954.88
2023-01-01T04:24:02.891Z,954.88
2023-01-01T04:25:02.884Z,954.96
2023-01-01T04:26:02.868Z,954.87
2023-01-01T04:27:02.876Z,954.9
2023-01-01T04:28:02.845Z,954.94
2023-01-01T04:29:02.844Z,954.91
2023-01-01T04:30:02.822Z,954.97
2023-01-01T04:31:02.812Z,954.94
2023-01-01T04:32:02.798Z,955.05
2023-01-01T04:33:02.790Z,955.1
2023-01-01T04:34:02.783Z,955.08
2023-01-01T04:35:02.763Z,955.13
2023-01-01T04:36:02.760Z,955.18
2023-01-01T04:37:04.837Z,955.21
2023-01-01T04:38:02.733Z,955.25
2023-01-01T04:39:02.719Z,955.24
2023-01-01T04:40:02.720Z,955.27
2023-01-01T04:41:02.696Z,955.22
2023-01-01T04:42:02.686Z,955.26
2023-01-01T04:43:02.674Z,955.22
2023-01-01T04:44:02.666Z,955.17
2023-01-01T04:45:02.656Z,955.26
2023-01-01T04:46:02.701Z,955.27
2023-01-01T04:47:02.631Z,955.23
2023-01-01T04:48:02.621Z,955.28
2023-01-01T04:49:02.607Z,955.27
2023-01-01T04:50:02.601Z,955.28
2023-01-01T04:51:02.590Z,955.25
2023-01-01T04:52:02.572Z,955.27
2023-01-01T04:53:02.597Z,955.3
2023-01-01T04:54:02.552Z,955.29
2023-01-01T04:55:02.542Z,955.27
2023-01-01T04:56:02.528Z,955.26
2023-01-01T04:57:02.519Z,955.28
2023-01-01T04:58:02.508Z,955.25
2023-01-01T04:59:02.511Z,955.27
2023-01-01T05:00:02.498Z,955.16
2023-01-01T05:01:02.578Z,955.19
2023-01-01T05:02:02.614Z,955.18
2023-01-01T05:03:02.532Z,955.17
2023-01-01T05:04:02.440Z,955.17
2023-01-01T05:05:02.433Z,955.07
2023-01-01T05:06:02.418Z,955.19
2023-01-01T05:07:02.405Z,955.17
2023-01-01T05:08:02.391Z,955.16
2023-01-01T05:09:02.433Z,955.17
2023-01-01T05:10:02.372Z,955.14
2023-01-01T05:11:02.362Z,955.17
2023-01-01T05:12:02.347Z,955.21
2023-01-01T05:13:02.337Z,955.21
2023-01-01T05:14:02.324Z,955.15
2023-01-01T05:15:02.317Z,955.17
2023-01-01T05:16:03.318Z,955.21
2023-01-01T05:17:03.262Z,955.17
2023-01-01T05:18:03.239Z,955.15
2023-01-01T05:19:03.235Z,955.08
2023-01-01T05:20:03.217Z,955.1
2023-01-01T05:21:03.208Z,955.14
2023-01-01T05:22:08.686Z,955.13
2023-01-01T05:23:03.194Z,955.1
2023-01-01T05:24:03.188Z,955.12
2023-01-01T05:25:03.195Z,955.11
2023-01-01T05:26:03.148Z,955.1
2023-01-01T05:27:03.146Z,955.16
2023-01-01T05:28:03.128Z,955.18
2023-01-01T05:29:03.115Z,955.11
2023-01-01T05:30:03.105Z,955.14
2023-01-01T05:31:03.092Z,955.17
2023-01-01T05:32:03.180Z,955.17
2023-01-01T05:33:03.072Z,955.18
2023-01-01T05:35:03.047Z,955.13
2023-01-01T05:36:03.056Z,955.19
2023-01-01T05:37:03.028Z,955.16
2023-01-01T05:38:03.154Z,955.16
2023-01-01T05:39:03.159Z,955.2
2023-01-01T05:40:03.146Z,955.27
2023-01-01T05:41:03.137Z,955.29
2023-01-01T05:42:03.111Z,955.26
2023-01-01T05:43:03.095Z,955.3
2023-01-01T05:44:03.088Z,955.34
2023-01-01T05:45:03.078Z,955.32
2023-01-01T05:46:03.157Z,955.28
2023-01-01T05:47:03.044Z,955.15
2023-01-01T05:48:03.043Z,955.2
2023-01-01T05:49:03.029Z,955.21
2023-01-01T05:51:03.000Z,955.26
2023-01-01T05:52:02.999Z,955.33
2023-01-01T05:53:02.993Z,955.28
2023-01-01T05:54:02.977Z,955.36
2023-01-01T05:55:02.968Z,955.25
2023-01-01T05:56:02.946Z,955.27
2023-01-01T05:57:02.959Z,955.25
2023-01-01T05:58:02.923Z,955.37
2023-01-01T05:59:02.919Z,955.35
2023-01-01T06:00:02.898Z,955.38
2023-01-01T06:01:02.992Z,955.33
2023-01-01T06:02:03.030Z,955.4
2023-01-01T06:03:02.865Z,955.46
2023-01-01T06:04:02.875Z,955.47
2023-01-01T06:05:02.841Z,955.47
2023-01-01T06:06:02.841Z,955.44
2023-01-01T06:07:02.824Z,955.46
2023-01-01T06:08:02.822Z,955.47
2023-01-01T06:09:02.797Z,955.55
2023-01-01T06:10:02.791Z,955.62
2023-01-01T06:11:02.787Z,955.55
2023-01-01T06:12:02.768Z,955.49
2023-01-01T06:13:05.570Z,955.45
2023-01-01T06:14:02.744Z,955.41
2023-01-01T06:15:02.728Z,955.46
2023-01-01T06:16:02.719Z,955.53
2023-01-01T06:17:02.798Z,955.45
2023-01-01T06:18:02.700Z,955.56
2023-01-01T06:19:02.684Z,955.57
2023-01-01T06:20:02.689Z,955.62
2023-01-01T06:21:02.663Z,955.49
2023-01-01T06:22:02.656Z,955.54
2023-01-01T06:23:02.662Z,955.59
2023-01-01T06:24:02.631Z,955.72
2023-01-01T06:25:02.625Z,955.54
2023-01-01T06:26:02.610Z,955.65
2023-01-01T06:27:02.597Z,955.63
2023-01-01T06:28:02.585Z,955.58
2023-01-01T06:29:02.603Z,955.51
2023-01-01T06:30:02.561Z,955.55
2023-01-01T06:31:02.652Z,955.52
2023-01-01T06:32:02.540Z,955.58
2023-01-01T06:33:02.528Z,955.63
2023-01-01T06:34:02.515Z,955.59
2023-01-01T06:35:02.508Z,955.55
2023-01-01T06:36:02.493Z,955.54
2023-01-01T06:37:06.648Z,955.57
2023-01-01T06:38:02.473Z,955.59
2023-01-01T06:39:02.465Z,955.55
2023-01-01T06:40:02.456Z,955.53
2023-01-01T06:41:02.439Z,955.52
2023-01-01T06:42:02.421Z,955.6
2023-01-01T06:43:02.632Z,955.55
2023-01-01T06:44:02.432Z,955.7
2023-01-01T06:45:02.420Z,955.66
2023-01-01T06:46:02.437Z,955.71
2023-01-01T06:47:02.368Z,955.66
2023-01-01T06:48:02.358Z,955.65
2023-01-01T06:49:02.347Z,955.68
2023-01-01T06:50:02.330Z,955.71
2023-01-01T06:51:02.322Z,955.67
2023-01-01T06:52:02.308Z,955.62
2023-01-01T06:53:02.299Z,955.59
2023-01-01T06:54:02.307Z,955.61
2023-01-01T06:55:02.275Z,955.67
2023-01-01T06:56:02.264Z,955.66
2023-01-01T06:57:02.253Z,955.64
2023-01-01T06:58:02.276Z,955.62
2023-01-01T06:59:02.229Z,955.76
2023-01-01T07:00:02.217Z,955.72
2023-01-01T07:01:06.384Z,955.67
2023-01-01T07:02:02.287Z,955.78
2023-01-01T07:03:02.427Z,955.7
2023-01-01T07:04:02.170Z,955.73
2023-01-01T07:05:02.162Z,955.78
2023-01-01T07:06:02.146Z,955.75
2023-01-01T07:07:02.147Z,955.79
2023-01-01T07:08:02.134Z,955.73
2023-01-01T07:09:02.116Z,955.79
2023-01-01T07:10:02.125Z,955.83
2023-01-01T07:11:02.090Z,955.88
2023-01-01T07:12:02.083Z,955.88
2023-01-01T07:13:02.069Z,955.88
2023-01-01T07:14:02.062Z,955.83
2023-01-01T07:15:02.066Z,955.89
2023-01-01T07:16:05.487Z,955.9
2023-01-01T07:17:02.070Z,955.93
2023-01-01T07:18:02.008Z,955.9
2023-01-01T07:19:01.997Z,955.99
2023-01-01T07:20:01.986Z,956.02
2023-01-01T07:21:01.974Z,956
2023-01-01T07:22:01.959Z,955.99
2023-01-01T07:23:01.949Z,956.03
2023-01-01T07:24:01.965Z,956.08
2023-01-01T07:25:01.925Z,956.05
2023-01-01T07:26:01.930Z,956.04
2023-01-01T07:27:01.900Z,956.11
2023-01-01T07:28:01.903Z,956.06
2023-01-01T07:29:07.256Z,956.05
2023-01-01T07:30:01.871Z,956.07
2023-01-01T07:31:01.893Z,956.08
2023-01-01T07:32:01.846Z,956.02
2023-01-01T07:33:01.859Z,956.01
2023-01-01T07:34:01.826Z,956.01
2023-01-01T07:35:01.821Z,956.08
2023-01-01T07:36:01.803Z,956.02
2023-01-01T07:37:01.799Z,956.1
2023-01-01T07:38:01.780Z,956.06
2023-01-01T07:39:01.800Z,956.08
2023-01-01T07:40:01.755Z,956.09
2023-01-01T07:41:01.745Z,956.17
2023-01-01T07:42:03.775Z,956.2
2023-01-01T07:43:01.719Z,956.16
2023-01-01T07:44:01.719Z,956.19
2023-01-01T07:45:01.697Z,956.19
2023-01-01T07:46:01.744Z,956.24
2023-01-01T07:47:01.685Z,956.29
2023-01-01T07:48:01.661Z,956.28
2023-01-01T07:49:01.673Z,956.31
2023-01-01T07:50:01.639Z,956.35
2023-01-01T07:51:01.630Z,956.37
2023-01-01T07:52:01.628Z,956.4
2023-01-01T07:53:01.621Z,956.39
2023-01-01T07:54:06.447Z,956.45
2023-01-01T07:55:01.582Z,956.4
2023-01-01T07:56:01.580Z,956.39
2023-01-01T07:57:01.559Z,956.39
2023-01-01T07:58:01.565Z,956.41
2023-01-01T07:59:01.552Z,956.43
2023-01-01T08:00:01.550Z,956.41
2023-01-01T08:01:01.633Z,956.44
2023-01-01T08:02:01.604Z,956.42
2023-01-01T08:03:01.593Z,956.42
2023-01-01T08:04:01.482Z,956.48
2023-01-01T08:05:01.497Z,956.41
2023-01-01T08:06:01.459Z,956.5
2023-01-01T08:07:01.475Z,956.49
2023-01-01T08:08:01.443Z,956.46
2023-01-01T08:09:01.436Z,956.45
2023-01-01T08:10:01.421Z,956.45
2023-01-01T08:11:03.733Z,956.41
2023-01-01T08:12:01.402Z,956.49
2023-01-01T08:13:01.402Z,956.42
2023-01-01T08:14:01.401Z,956.47
2023-01-01T08:15:01.371Z,956.49
2023-01-01T08:16:01.403Z,956.46
2023-01-01T08:17:01.338Z,956.48
2023-01-01T08:18:01.323Z,956.49
2023-01-01T08:19:01.316Z,956.47
2023-01-01T08:20:01.398Z,956.55
2023-01-01T08:21:01.371Z,956.46
2023-01-01T08:22:01.327Z,956.49
2023-01-01T08:23:06.581Z,956.54
2023-01-01T08:24:01.257Z,956.47
2023-01-01T08:25:01.248Z,956.46
2023-01-01T08:26:01.243Z,956.52
2023-01-01T08:27:01.232Z,956.58
2023-01-01T08:28:01.216Z,956.58
2023-01-01T08:29:01.211Z,956.56
2023-01-01T08:30:01.211Z,956.65
2023-01-01T08:31:01.253Z,956.57
2023-01-01T08:32:01.171Z,956.46
2023-01-01T08:33:01.160Z,956.6
2023-01-01T08:34:01.151Z,956.52
2023-01-01T08:35:01.137Z,956.57
2023-01-01T08:36:01.131Z,956.65
2023-01-01T08:37:01.145Z,956.63
2023-01-01T08:38:01.108Z,956.59
2023-01-01T08:39:01.100Z,956.65
2023-01-01T08:40:01.085Z,956.62
2023-01-01T08:41:01.082Z,956.64
2023-01-01T08:42:01.065Z,956.66
2023-01-01T08:43:01.054Z,956.72
2023-01-01T08:44:01.040Z,956.71
2023-01-01T08:45:01.035Z,956.7
2023-01-01T08:46:01.023Z,956.67
2023-01-01T08:47:01.083Z,956.72
2023-01-01T08:48:01.005Z,956.66
2023-01-01T08:49:00.990Z,956.78
2023-01-01T08:50:00.995Z,956.75
2023-01-01T08:51:01.004Z,956.79
2023-01-01T08:52:00.956Z,956.82
2023-01-01T08:53:01.177Z,956.79
2023-01-01T08:54:01.160Z,956.87
2023-01-01T08:55:01.192Z,956.88
2023-01-01T08:56:01.119Z,956.89
2023-01-01T08:57:01.139Z,956.94
2023-01-01T08:58:01.099Z,956.88
2023-01-01T08:59:04.045Z,956.91
2023-01-01T09:00:01.078Z,956.97
2023-01-01T09:01:01.103Z,957.05
2023-01-01T09:02:01.189Z,957
2023-01-01T09:03:01.146Z,956.99
2023-01-01T09:04:01.036Z,957.07
2023-01-01T09:05:01.025Z,957.1
2023-01-01T09:06:01.017Z,957.05
2023-01-01T09:07:01.003Z,957.09
2023-01-01T09:08:00.995Z,957.13
2023-01-01T09:09:01.006Z,957.18
2023-01-01T09:10:00.973Z,957.11
2023-01-01T09:11:00.962Z,957.12
2023-01-01T09:12:00.950Z,957.18
2023-01-01T09:13:00.940Z,957.14
2023-01-01T09:14:00.935Z,957.12
2023-01-01T09:15:00.922Z,957.09
2023-01-01T09:16:00.965Z,957.16
2023-01-01T09:17:00.901Z,957.1
2023-01-01T09:18:00.915Z,957.12
2023-01-01T09:19:00.882Z,957.18
2023-01-01T09:20:00.876Z,957.22
2023-01-01T09:21:00.860Z,957.18
2023-01-01T09:22:00.856Z,957.15
2023-01-01T09:23:05.581Z,957.17
2023-01-01T09:24:00.845Z,957.24
2023-01-01T09:25:00.853Z,957.3
2023-01-01T09:26:00.810Z,957.24
2023-01-01T09:27:00.798Z,957.23
2023-01-01T09:28:00.794Z,957.3
2023-01-01T09:29:00.786Z,957.29
2023-01-01T09:30:00.796Z,957.36
2023-01-01T09:31:00.759Z,957.34
2023-01-01T09:32:00.827Z,957.32
2023-01-01T09:33:00.741Z,957.34
2023-01-01T09:34:00.733Z,957.4
2023-01-01T09:35:00.730Z,957.39
2023-01-01T09:36:00.712Z,957.49
2023-01-01T09:37:00.706Z,957.44
2023-01-01T09:38:00.705Z,957.38
2023-01-01T09:39:00.681Z,957.38
2023-01-01T09:40:00.671Z,957.44
2023-01-01T09:41:00.696Z,957.37
2023-01-01T09:42:00.655Z,957.45
2023-01-01T09:43:00.648Z,957.41
2023-01-01T09:44:00.630Z,957.46
2023-01-01T09:45:00.642Z,957.42
2023-01-01T09:46:00.654Z,957.39
2023-01-01T09:47:00.618Z,957.39
2023-01-01T09:48:00.600Z,957.43
2023-01-01T09:49:00.581Z,957.47
2023-01-01T09:50:00.576Z,957.56
2023-01-01T09:51:00.577Z,957.5
2023-01-01T09:52:00.559Z,957.52
2023-01-01T09:53:00.563Z,957.42
2023-01-01T09:54:00.545Z,957.44
2023-01-01T09:55:00.526Z,957.43
2023-01-01T09:56:00.517Z,957.46
2023-01-01T09:57:00.535Z,957.35
2023-01-01T09:58:00.493Z,957.36
2023-01-01T09:59:00.492Z,957.44
2023-01-01T10:00:00.473Z,957.48
2023-01-01T10:01:00.571Z,957.43
2023-01-01T10:02:00.576Z,957.49
2023-01-01T10:03:00.446Z,957.49
2023-01-01T10:04:00.487Z,957.48
2023-01-01T10:05:00.438Z,957.49
2023-01-01T10:06:00.420Z,957.45
2023-01-01T10:07:00.409Z,957.44
2023-01-01T10:08:00.408Z,957.36
2023-01-01T10:09:00.396Z,957.35
2023-01-01T10:10:00.384Z,957.42
2023-01-01T10:11:00.373Z,957.42
2023-01-01T10:12:00.369Z,957.5
2023-01-01T10:13:00.376Z,957.53
2023-01-01T10:14:00.340Z,957.42
2023-01-01T10:15:01.083Z,957.44
2023-01-01T10:16:00.325Z,957.47
2023-01-01T10:17:00.349Z,957.44
2023-01-01T10:18:00.303Z,957.39
2023-01-01T10:19:00.304Z,957.42
2023-01-01T10:20:00.671Z,957.44
2023-01-01T10:21:00.658Z,957.37
2023-01-01T10:22:00.658Z,957.35
2023-01-01T10:23:00.644Z,957.34
2023-01-01T10:24:00.627Z,957.43
2023-01-01T10:25:00.621Z,957.41
2023-01-01T10:26:00.608Z,957.4
2023-01-01T10:27:00.603Z,957.49
2023-01-01T10:28:00.595Z,957.46
2023-01-01T10:29:00.618Z,957.44
2023-01-01T10:30:04.061Z,957.39
2023-01-01T10:31:00.581Z,957.46
2023-01-01T10:32:00.570Z,957.43
2023-01-01T10:33:00.560Z,957.49
2023-01-01T10:34:00.541Z,957.54
2023-01-01T10:35:00.528Z,957.5
2023-01-01T10:36:00.519Z,957.57
2023-01-01T10:37:00.512Z,957.66
2023-01-01T10:38:00.496Z,957.65
2023-01-01T10:39:00.486Z,957.65
2023-01-01T10:40:00.485Z,957.73
2023-01-01T10:41:00.491Z,957.72
2023-01-01T10:42:01.125Z,957.61
2023-01-01T10:43:01.111Z,957.61
2023-01-01T10:44:01.104Z,957.6
2023-01-01T10:45:01.119Z,957.59
2023-01-01T10:46:01.155Z,957.67
2023-01-01T10:47:01.096Z,957.55
2023-01-01T10:48:01.078Z,957.45
2023-01-01T10:49:01.056Z,957.47
2023-01-01T10:50:01.062Z,957.47
2023-01-01T10:51:01.038Z,957.44
2023-01-01T10:52:01.031Z,957.48
2023-01-01T10:53:01.026Z,957.51
2023-01-01T10:54:01.031Z,957.48
2023-01-01T10:55:01.024Z,957.5
2023-01-01T10:56:00.994Z,957.49
2023-01-01T10:57:00.982Z,957.53
2023-01-01T10:58:00.973Z,957.55
2023-01-01T10:59:00.970Z,957.55
2023-01-01T11:00:00.953Z,957.48
2023-01-01T11:01:01.216Z,957.49
2023-01-01T11:02:01.075Z,957.55
2023-01-01T11:03:00.962Z,957.53
2023-01-01T11:04:01.742Z,957.53
2023-01-01T11:05:05.417Z,957.6
2023-01-01T11:06:01.723Z,957.55
2023-01-01T11:07:01.718Z,957.59
2023-01-01T11:08:01.739Z,957.61
2023-01-01T11:09:01.739Z,957.54
2023-01-01T11:10:04.254Z,957.54
2023-01-01T11:11:01.715Z,957.57
2023-01-01T11:12:07.294Z,957.55
2023-01-01T11:13:15.571Z,957.55
2023-01-01T11:14:15.570Z,957.51
2023-01-01T11:15:15.555Z,957.44
2023-01-01T11:16:15.630Z,957.51
2023-01-01T11:17:15.535Z,957.41
2023-01-01T11:18:15.551Z,957.49
2023-01-01T11:19:15.522Z,957.46
2023-01-01T11:20:15.509Z,957.51
2023-01-01T11:21:15.499Z,957.43
2023-01-01T11:22:15.492Z,957.44
2023-01-01T11:23:15.484Z,957.43
2023-01-01T11:24:15.476Z,957.43
2023-01-01T11:25:15.463Z,957.44
2023-01-01T11:26:15.454Z,957.43
2023-01-01T11:27:15.444Z,957.51
2023-01-01T11:28:15.440Z,957.48
2023-01-01T11:29:15.430Z,957.5
2023-01-01T11:30:15.417Z,957.47
2023-01-01T11:31:15.569Z,957.45
2023-01-01T11:32:15.431Z,957.55
2023-01-01T11:33:15.391Z,957.48
2023-01-01T11:34:15.382Z,957.41
2023-01-01T11:35:15.372Z,957.45
2023-01-01T11:36:15.362Z,957.38
2023-01-01T11:37:15.359Z,957.42
2023-01-01T11:38:15.345Z,957.4
2023-01-01T11:39:15.335Z,957.35
2023-01-01T11:40:15.334Z,957.43
2023-01-01T11:41:15.319Z,957.51
2023-01-01T11:42:15.308Z,957.52
2023-01-01T11:43:15.301Z,957.48
2023-01-01T11:44:15.289Z,957.45
2023-01-01T11:45:15.284Z,957.43
2023-01-01T11:46:15.302Z,957.34
2023-01-01T11:47:15.273Z,957.34
2023-01-01T11:48:15.279Z,957.23
2023-01-01T11:49:15.246Z,957.17
2023-01-01T11:50:15.235Z,957.22
2023-01-01T11:51:15.228Z,957.14
2023-01-01T11:52:15.219Z,957.11
2023-01-01T11:53:15.207Z,957.12
2023-01-01T11:54:15.197Z,957.04
2023-01-01T11:55:15.195Z,957.12
2023-01-01T11:56:15.180Z,957.07
2023-01-01T11:57:15.192Z,957
2023-01-01T11:58:19.517Z,956.96
2023-01-01T11:59:15.154Z,956.96
2023-01-01T12:00:15.141Z,957.05
2023-01-01T12:01:15.168Z,957.11
2023-01-01T12:02:15.146Z,957.04
2023-01-01T12:03:15.118Z,957
2023-01-01T12:04:15.144Z,957
2023-01-01T12:05:15.108Z,957.06
2023-01-01T12:06:15.088Z,957.07
2023-01-01T12:07:15.081Z,957.01
2023-01-01T12:08:15.070Z,956.89
2023-01-01T12:09:18.440Z,956.97
2023-01-01T12:10:15.052Z,956.95
2023-01-01T12:11:15.042Z,956.91
2023-01-01T12:12:15.052Z,956.86
2023-01-01T12:13:15.028Z,956.93
2023-01-01T12:14:15.022Z,956.89
2023-01-01T12:15:15.006Z,956.9
2023-01-01T12:16:15.086Z,956.89
2023-01-01T12:17:14.988Z,956.87
2023-01-01T12:18:14.978Z,956.88
2023-01-01T12:19:14.971Z,956.95
2023-01-01T12:20:14.990Z,956.77
2023-01-01T12:21:14.953Z,956.82
2023-01-01T12:22:14.950Z,956.8
2023-01-01T12:23:14.932Z,956.83
2023-01-01T12:24:14.925Z,956.72
2023-01-01T12:25:14.927Z,956.68
2023-01-01T12:26:14.908Z,956.74
2023-01-01T12:27:14.897Z,956.79
2023-01-01T12:28:14.891Z,956.68
2023-01-01T12:29:14.877Z,956.71
2023-01-01T12:30:14.873Z,956.75
2023-01-01T12:31:14.912Z,956.79
2023-01-01T12:32:14.856Z,956.74
2023-01-01T12:33:14.856Z,956.75
2023-01-01T12:34:14.837Z,956.75
2023-01-01T12:35:14.826Z,956.71
2023-01-01T12:36:14.843Z,956.73
2023-01-01T12:37:14.811Z,956.71
2023-01-01T12:38:14.803Z,956.72
2023-01-01T12:39:14.790Z,956.79
2023-01-01T12:40:18.408Z,956.7
2023-01-01T12:41:14.776Z,956.86
2023-01-01T12:42:14.765Z,956.82
2023-01-01T12:43:14.755Z,956.73
2023-01-01T12:44:14.757Z,956.78
2023-01-01T12:45:14.748Z,956.79
2023-01-01T12:46:14.754Z,956.77
2023-01-01T12:47:14.720Z,956.81
2023-01-01T12:48:14.711Z,956.78
2023-01-01T12:49:14.704Z,956.82